createdAt,value
2022-08-17T00:00:44.163Z,28.33
2022-08-17T00:03:13.604Z,24.77
2022-08-17T00:05:45.963Z,22.63
2022-08-17T00:08:16.475Z,24.63
2022-08-17T00:10:46.275Z,26.57
2022-08-17T00:13:19.298Z,24.83
2022-08-17T00:15:47.706Z,24.90
2022-08-17T00:19:02.080Z,29.47
2022-08-17T00:21:10.454Z,25.17
2022-08-17T00:23:47.684Z,28.90
2022-08-17T00:26:43.593Z,22.43
2022-08-17T00:29:07.992Z,29.77
2022-08-17T00:31:36.835Z,34.67
2022-08-17T00:34:08.817Z,38.40
2022-08-17T00:36:37.127Z,21.77
2022-08-17T00:39:06.607Z,25.87
2022-08-17T00:41:35.955Z,28.20
2022-08-17T00:44:10.159Z,24.47
2022-08-17T00:46:41.082Z,23.53
2022-08-17T00:49:12.963Z,38.30
2022-08-17T00:51:45.634Z,28.73
2022-08-17T00:54:16.261Z,26.47
2022-08-17T00:56:49.008Z,32.83
2022-08-17T00:59:21.642Z,22.27
2022-08-17T01:01:51.759Z,28.33
2022-08-17T01:04:24.064Z,28.43
2022-08-17T01:06:56.137Z,26.93
2022-08-17T01:09:24.759Z,29.17
2022-08-17T01:11:53.504Z,33.53
2022-08-17T01:14:23.067Z,30.33
2022-08-17T01:16:54.506Z,27.40
2022-08-17T01:19:26.673Z,31.43
2022-08-17T01:22:01.422Z,27.13
2022-08-17T01:24:33.762Z,28.27
2022-08-17T01:27:02.107Z,28.20
2022-08-17T01:29:32.261Z,29.00
2022-08-17T01:32:03.727Z,37.90
2022-08-17T01:34:38.059Z,30.93
2022-08-17T01:37:12.336Z,32.70
2022-08-17T01:39:45.446Z,29.27
2022-08-17T01:42:21.814Z,32.87
2022-08-17T01:44:52.955Z,33.93
2022-08-17T01:47:21.186Z,35.67
2022-08-17T01:49:50.594Z,35.70
2022-08-17T01:52:19.564Z,33.07
2022-08-17T01:54:51.798Z,31.17
2022-08-17T01:57:20.350Z,30.73
2022-08-17T01:59:48.545Z,33.13
2022-08-17T02:02:30.874Z,38.67
2022-08-17T02:05:00.409Z,34.57
2022-08-17T02:07:29.106Z,33.83
2022-08-17T02:09:58.942Z,36.70
2022-08-17T02:12:37.680Z,34.23
2022-08-17T02:15:10.004Z,31.07
2022-08-17T02:17:40.624Z,35.60
2022-08-17T02:20:10.235Z,31.67
2022-08-17T02:22:40.827Z,33.23
2022-08-17T02:25:12.931Z,41.17
2022-08-17T02:27:41.289Z,38.97
2022-08-17T02:31:02.093Z,35.37
2022-08-17T02:33:04.341Z,38.10
2022-08-17T02:35:34.941Z,35.53
2022-08-17T02:38:03.597Z,36.43
2022-08-17T02:40:36.623Z,36.63
2022-08-17T02:43:07.717Z,31.80
2022-08-17T02:45:36.136Z,39.63
2022-08-17T02:48:05.382Z,37.40
2022-08-17T02:50:33.679Z,34.63
2022-08-17T02:53:04.583Z,37.97
2022-08-17T02:55:37.618Z,37.10
2022-08-17T02:58:06.073Z,35.87
2022-08-17T03:00:36.968Z,47.13
2022-08-17T03:03:07.498Z,41.33
2022-08-17T03:05:37.527Z,30.00
2022-08-17T03:08:07.484Z,41.57
2022-08-17T03:10:43.033Z,38.97
2022-08-17T03:13:14.386Z,46.60
2022-08-17T03:15:45.332Z,40.73
2022-08-17T03:18:25.014Z,45.40
2022-08-17T03:20:56.861Z,43.13
2022-08-17T03:23:26.382Z,46.03
2022-08-17T03:25:57.028Z,42.70
2022-08-17T03:28:26.534Z,45.50
2022-08-17T03:30:54.873Z,39.20
2022-08-17T03:33:23.609Z,39.80
2022-08-17T03:35:52.666Z,43.70
2022-08-17T03:38:21.868Z,48.40
2022-08-17T03:40:56.512Z,44.30
2022-08-17T03:43:29.740Z,37.93
2022-08-17T03:46:33.917Z,45.27
2022-08-17T03:49:21.780Z,49.87
2022-08-17T03:52:07.715Z,51.57
2022-08-17T03:54:53.251Z,40.87
2022-08-17T03:57:22.656Z,48.80
2022-08-17T03:59:53.496Z,45.87
2022-08-17T04:02:25.720Z,41.47
2022-08-17T04:04:54.330Z,40.40
2022-08-17T04:07:25.721Z,46.97
2022-08-17T04:09:54.553Z,51.77
2022-08-17T04:12:24.364Z,44.40
2022-08-17T04:14:55.171Z,40.10
2022-08-17T04:17:25.679Z,42.63
2022-08-17T04:19:54.631Z,41.33
2022-08-17T04:22:31.347Z,39.37
2022-08-17T04:25:05.354Z,50.23
2022-08-17T04:27:33.777Z,37.17
2022-08-17T04:30:05.993Z,44.93
2022-08-17T04:33:04.130Z,39.00
2022-08-17T04:35:26.848Z,42.50
2022-08-17T04:37:55.365Z,41.80
2022-08-17T04:40:43.418Z,41.00
2022-08-17T04:43:14.160Z,45.13
2022-08-17T04:45:51.273Z,35.13
2022-08-17T04:48:35.676Z,34.43
2022-08-17T04:51:08.113Z,36.40
2022-08-17T04:53:36.571Z,36.53
2022-08-17T04:56:05.317Z,41.03
2022-08-17T04:58:33.629Z,38.83
2022-08-17T05:01:03.435Z,32.90
2022-08-17T05:03:32.070Z,36.47
2022-08-17T05:06:00.752Z,42.20
2022-08-17T05:08:29.045Z,37.57
2022-08-17T05:10:57.275Z,40.77
2022-08-17T05:13:29.307Z,38.50
2022-08-17T05:15:59.498Z,35.80
2022-08-17T05:18:30.824Z,35.67
2022-08-17T05:20:59.708Z,40.27
2022-08-17T05:23:41.698Z,39.97
2022-08-17T05:26:25.516Z,37.70
2022-08-17T05:28:55.066Z,41.50
2022-08-17T05:31:26.141Z,39.50
2022-08-17T05:33:56.267Z,44.03
2022-08-17T05:36:38.129Z,34.93
2022-08-17T05:39:16.507Z,38.47
2022-08-17T05:41:46.788Z,35.03
2022-08-17T05:44:15.552Z,31.98
2022-08-17T05:46:48.483Z,30.15
2022-08-17T05:49:23.094Z,38.35
2022-08-17T05:52:12.950Z,35.38
2022-08-17T05:54:58.763Z,35.28
2022-08-17T05:57:51.989Z,38.50
2022-08-17T06:00:26.483Z,36.95
2022-08-17T06:03:32.435Z,34.17
2022-08-17T06:06:18.190Z,33.88
2022-08-17T06:08:52.202Z,36.67
2022-08-17T06:11:31.158Z,36.60
2022-08-17T06:14:23.344Z,31.63
2022-08-17T06:16:56.555Z,31.03
2022-08-17T06:19:34.680Z,27.17
2022-08-17T06:22:06.019Z,35.60
2022-08-17T06:24:38.814Z,35.10
2022-08-17T06:27:14.791Z,33.37
2022-08-17T06:29:51.250Z,25.40
2022-08-17T06:32:20.109Z,31.15
2022-08-17T06:34:49.125Z,28.00
2022-08-17T06:37:34.063Z,30.30
2022-08-17T06:40:19.538Z,29.27
2022-08-17T06:43:05.822Z,26.65
2022-08-17T06:45:39.022Z,30.05
2022-08-17T06:48:14.496Z,32.17
2022-08-17T06:50:48.835Z,31.05
2022-08-17T06:53:25.243Z,29.25
2022-08-17T06:55:59.944Z,25.30
2022-08-17T06:58:31.764Z,27.27
2022-08-17T07:01:07.818Z,22.98
2022-08-17T07:03:41.146Z,25.65
2022-08-17T07:06:15.522Z,21.98
2022-08-17T07:08:57.196Z,25.15
2022-08-17T07:11:29.003Z,25.20
2022-08-17T07:14:07.496Z,26.13
2022-08-17T07:16:41.169Z,27.85
2022-08-17T07:19:11.294Z,25.35
2022-08-17T07:21:50.969Z,30.63
2022-08-17T07:24:33.318Z,23.48
2022-08-17T07:27:27.480Z,25.80
2022-08-17T07:29:59.501Z,26.35
2022-08-17T07:32:31.582Z,28.67
2022-08-17T07:35:16.404Z,27.73
2022-08-17T07:37:53.170Z,23.13
2022-08-17T07:40:31.263Z,22.10
2022-08-17T07:43:22.201Z,24.30
2022-08-17T07:46:34.063Z,26.42
2022-08-17T07:49:19.976Z,21.05
2022-08-17T07:52:23.922Z,24.58
2022-08-17T07:54:52.192Z,25.92
2022-08-17T07:57:36.888Z,21.05
2022-08-17T08:00:16.535Z,20.50
2022-08-17T08:02:59.062Z,19.15
2022-08-17T08:05:49.927Z,21.13
2022-08-17T08:08:31.320Z,22.60
2022-08-17T08:11:03.758Z,17.38
2022-08-17T08:13:35.627Z,27.70
2022-08-17T08:16:25.505Z,20.92
2022-08-17T08:18:57.801Z,24.55
2022-08-17T08:21:36.776Z,21.08
2022-08-17T08:24:36.611Z,19.75
2022-08-17T08:27:19.492Z,22.30
2022-08-17T08:29:55.585Z,19.88
2022-08-17T08:32:36.885Z,16.52
2022-08-17T08:35:09.763Z,13.85
2022-08-17T08:37:55.667Z,17.55
2022-08-17T08:40:38.761Z,16.75
2022-08-17T08:43:18.284Z,17.73
2022-08-17T08:45:56.918Z,17.40
2022-08-17T08:48:53.408Z,16.58
2022-08-17T08:51:37.960Z,20.60
2022-08-17T08:54:15.679Z,18.10
2022-08-17T08:57:19.773Z,16.02
2022-08-17T08:59:45.037Z,14.27
2022-08-17T09:02:46.927Z,14.70
2022-08-17T09:05:27.013Z,18.73
2022-08-17T09:08:04.758Z,16.98
2022-08-17T09:10:55.985Z,18.17
2022-08-17T09:13:32.840Z,17.85
2022-08-17T09:16:08.510Z,16.25
2022-08-17T09:19:00.285Z,14.45
2022-08-17T09:21:47.749Z,14.55
2022-08-17T09:24:24.566Z,16.95
2022-08-17T09:26:59.455Z,12.82
2022-08-17T09:29:32.633Z,13.60
2022-08-17T09:32:03.830Z,12.32
2022-08-17T09:34:39.753Z,17.67
2022-08-17T09:37:22.891Z,12.68
2022-08-17T09:39:59.456Z,13.45
2022-08-17T09:42:32.921Z,16.92
2022-08-17T09:45:12.930Z,13.68
2022-08-17T09:47:46.691Z,15.07
2022-08-17T09:51:03.984Z,15.18
2022-08-17T09:53:12.804Z,14.25
2022-08-17T09:55:58.093Z,10.77
2022-08-17T09:58:34.808Z,14.85
2022-08-17T10:01:18.078Z,10.00
2022-08-17T10:04:03.741Z,10.35
2022-08-17T10:06:38.853Z,10.80
2022-08-17T10:09:15.726Z,9.23
2022-08-17T10:12:06.719Z,11.00
2022-08-17T10:14:43.880Z,11.63
2022-08-17T10:17:22.224Z,8.80
2022-08-17T10:19:58.605Z,9.20
2022-08-17T10:22:53.405Z,11.77
2022-08-17T10:25:54.823Z,9.02
2022-08-17T10:28:29.725Z,14.48
2022-08-17T10:31:30.968Z,7.10
2022-08-17T10:34:04.149Z,10.10
2022-08-17T10:36:46.300Z,7.15
2022-08-17T10:39:27.587Z,11.23
2022-08-17T10:42:00.590Z,9.52
2022-08-17T10:44:42.741Z,8.40
2022-08-17T10:47:14.454Z,9.35
2022-08-17T10:49:48.242Z,7.78
2022-08-17T10:52:52.553Z,14.40
2022-08-17T10:55:25.861Z,12.18
2022-08-17T10:58:22.135Z,10.48
2022-08-17T11:01:13.085Z,12.90
2022-08-17T11:03:55.022Z,10.52
2022-08-17T11:06:33.535Z,9.77
2022-08-17T11:09:26.300Z,8.10
2022-08-17T11:12:16.633Z,12.75
2022-08-17T11:15:02.734Z,18.77
2022-08-17T11:17:50.845Z,11.10
2022-08-17T11:21:03.559Z,17.75
2022-08-17T11:24:07.956Z,10.77
2022-08-17T11:26:42.232Z,14.73
2022-08-17T11:29:24.660Z,12.05
2022-08-17T11:32:08.095Z,7.68
2022-08-17T11:34:41.238Z,7.40
2022-08-17T11:37:24.775Z,11.02
2022-08-17T11:40:26.424Z,8.30
2022-08-17T11:43:21.265Z,7.65
2022-08-17T11:46:12.207Z,12.00
2022-08-17T11:49:13.415Z,8.50
2022-08-17T11:52:13.136Z,9.77
2022-08-17T11:54:45.383Z,8.68
2022-08-17T11:58:01.934Z,7.78
2022-08-17T12:00:57.714Z,11.20
2022-08-17T12:03:55.306Z,8.68
2022-08-17T12:06:49.385Z,13.48
2022-08-17T12:09:25.186Z,7.60
2022-08-17T12:12:13.431Z,11.93
2022-08-17T12:17:41.389Z,9.02
2022-08-17T12:20:17.783Z,11.80
2022-08-17T12:22:54.910Z,12.35
2022-08-17T12:25:33.032Z,14.90
2022-08-17T12:28:06.304Z,14.13
2022-08-17T12:30:37.281Z,11.77
2022-08-17T12:33:12.773Z,14.50
2022-08-17T12:35:43.607Z,14.18
2022-08-17T12:38:32.056Z,12.68
2022-08-17T12:41:21.574Z,19.35
2022-08-17T12:44:02.278Z,12.10
2022-08-17T12:46:35.034Z,16.38
2022-08-17T12:49:26.505Z,12.50
2022-08-17T12:52:07.774Z,12.75
2022-08-17T12:54:53.043Z,12.77
2022-08-17T12:57:24.122Z,12.68
2022-08-17T12:59:58.381Z,11.07
2022-08-17T13:02:32.779Z,10.43
2022-08-17T13:05:02.373Z,10.93
2022-08-17T13:07:42.889Z,8.32
2022-08-17T13:10:19.133Z,10.52
2022-08-17T13:12:48.045Z,9.57
2022-08-17T13:15:23.347Z,10.90
2022-08-17T13:18:05.061Z,14.45
2022-08-17T13:20:36.338Z,8.45
2022-08-17T13:23:12.621Z,9.63
2022-08-17T13:25:41.261Z,13.93
2022-08-17T13:28:35.517Z,13.13
2022-08-17T13:31:27.908Z,10.80
2022-08-17T13:34:14.499Z,13.95
2022-08-17T13:36:44.342Z,8.20
2022-08-17T13:39:21.069Z,7.82
2022-08-17T13:41:50.727Z,11.02
2022-08-17T13:44:32.392Z,11.75
2022-08-17T13:47:02.029Z,12.63
2022-08-17T13:49:48.165Z,14.52
2022-08-17T13:52:34.765Z,10.25
2022-08-17T13:55:09.537Z,9.15
2022-08-17T13:57:38.618Z,9.02
2022-08-17T14:00:17.205Z,14.48
2022-08-17T14:02:45.576Z,10.55
2022-08-17T14:05:13.823Z,12.85
2022-08-17T14:07:42.346Z,13.20
2022-08-17T14:10:17.504Z,13.25
2022-08-17T14:12:46.555Z,11.95
2022-08-17T14:15:17.179Z,16.15
2022-08-17T14:17:45.912Z,11.38
2022-08-17T14:20:14.719Z,17.83
2022-08-17T14:22:47.301Z,14.13
2022-08-17T14:25:20.809Z,16.05
2022-08-17T14:27:53.018Z,14.10
2022-08-17T14:30:24.074Z,14.50
2022-08-17T14:32:53.252Z,13.13
2022-08-17T14:35:23.855Z,11.27
2022-08-17T14:37:53.031Z,16.10
2022-08-17T14:40:25.537Z,10.55
2022-08-17T14:42:55.302Z,11.32
2022-08-17T14:45:29.839Z,13.32
2022-08-17T14:48:02.985Z,7.72
2022-08-17T14:50:31.702Z,10.88
2022-08-17T14:53:01.561Z,11.75
2022-08-17T14:55:32.777Z,9.27
2022-08-17T14:58:01.016Z,12.38
2022-08-17T15:00:29.469Z,11.18
2022-08-17T15:03:00.213Z,6.82
2022-08-17T15:05:31.538Z,8.48
2022-08-17T15:08:00.632Z,13.05
2022-08-17T15:10:30.896Z,15.75
2022-08-17T15:13:00.275Z,9.60
2022-08-17T15:15:30.129Z,11.85
2022-08-17T15:18:00.000Z,11.10
2022-08-17T15:20:31.520Z,8.73
2022-08-17T15:23:00.415Z,9.25
2022-08-17T15:25:31.923Z,14.93
2022-08-17T15:28:01.791Z,10.13
2022-08-17T15:30:30.962Z,11.05
2022-08-17T15:33:00.715Z,9.40
2022-08-17T15:35:31.785Z,8.35
2022-08-17T15:38:08.038Z,9.73
2022-08-17T15:40:43.366Z,8.82
2022-08-17T15:43:14.733Z,9.43
2022-08-17T15:45:43.309Z,10.18
2022-08-17T15:48:14.313Z,9.77
2022-08-17T15:50:42.940Z,12.30
2022-08-17T15:53:11.969Z,9.82
2022-08-17T15:55:43.980Z,9.23
2022-08-17T15:58:12.514Z,8.60
2022-08-17T16:00:53.345Z,12.98
2022-08-17T16:04:01.513Z,16.00
2022-08-17T16:06:19.993Z,9.52
2022-08-17T16:08:48.566Z,10.43
2022-08-17T16:11:19.737Z,13.35
2022-08-17T16:13:54.794Z,9.60
2022-08-17T16:16:24.841Z,11.35
2022-08-17T16:18:54.726Z,14.52
2022-08-17T16:21:29.653Z,13.30
2022-08-17T16:24:01.232Z,12.25
2022-08-17T16:26:33.437Z,12.38
2022-08-17T16:29:03.742Z,11.18
2022-08-17T16:31:32.288Z,10.95
2022-08-17T16:34:16.699Z,11.50
2022-08-17T16:36:55.583Z,9.77
2022-08-17T16:39:29.610Z,9.15
2022-08-17T16:42:00.352Z,11.85
2022-08-17T16:44:32.217Z,10.40
2022-08-17T16:47:01.941Z,11.45
2022-08-17T16:49:36.713Z,7.82
2022-08-17T16:52:10.314Z,10.85
2022-08-17T16:54:41.885Z,12.90
2022-08-17T16:57:11.829Z,9.88
2022-08-17T16:59:43.782Z,8.65
2022-08-17T17:02:17.608Z,11.60
2022-08-17T17:04:52.554Z,11.07
2022-08-17T17:07:50.097Z,12.25
2022-08-17T17:10:22.101Z,9.73
2022-08-17T17:13:03.866Z,8.70
2022-08-17T17:15:44.779Z,10.93
2022-08-17T17:18:15.536Z,9.55
2022-08-17T17:20:50.735Z,10.57
2022-08-17T17:23:32.773Z,14.25
2022-08-17T17:26:10.980Z,11.40
2022-08-17T17:28:57.288Z,12.77
2022-08-17T17:31:31.819Z,11.85
2022-08-17T17:34:06.006Z,15.73
2022-08-17T17:36:40.650Z,14.07
2022-08-17T17:39:13.860Z,18.50
2022-08-17T17:41:48.291Z,14.55
2022-08-17T17:44:21.140Z,11.25
2022-08-17T17:46:52.482Z,18.05
2022-08-17T17:49:21.317Z,11.38
2022-08-17T17:52:11.059Z,10.80
2022-08-17T17:55:00.136Z,13.15
2022-08-17T17:57:39.405Z,14.73
2022-08-17T18:00:14.129Z,10.07
2022-08-17T18:02:58.321Z,18.95
2022-08-17T18:05:44.535Z,13.23
2022-08-17T18:08:32.095Z,11.40
2022-08-17T18:11:12.515Z,14.80
2022-08-17T18:13:57.660Z,18.15
2022-08-17T18:16:32.133Z,17.35
2022-08-17T18:19:01.802Z,15.88
2022-08-17T18:21:36.398Z,17.17
2022-08-17T18:24:08.414Z,17.73
2022-08-17T18:26:48.908Z,15.18
2022-08-17T18:29:31.694Z,17.77
2022-08-17T18:32:33.833Z,13.52
2022-08-17T18:35:30.717Z,17.48
2022-08-17T18:38:20.857Z,23.00
2022-08-17T18:41:00.591Z,21.60
2022-08-17T18:43:36.484Z,15.27
2022-08-17T18:46:28.681Z,17.85
2022-08-17T18:49:01.344Z,13.50
2022-08-17T18:51:42.269Z,17.48
2022-08-17T18:54:18.873Z,14.20
2022-08-17T18:56:53.377Z,15.57
2022-08-17T18:59:28.268Z,15.45
2022-08-17T19:02:15.337Z,18.42
2022-08-17T19:05:08.081Z,18.27
2022-08-17T19:07:39.520Z,18.73
2022-08-17T19:10:19.244Z,16.05
2022-08-17T19:12:52.738Z,18.10
2022-08-17T19:15:34.299Z,21.58
2022-08-17T19:18:10.908Z,24.23
2022-08-17T19:20:48.242Z,15.30
2022-08-17T19:23:24.440Z,23.38
2022-08-17T19:25:55.434Z,24.00
2022-08-17T19:28:30.800Z,16.35
2022-08-17T19:31:01.987Z,18.83
2022-08-17T19:33:32.170Z,19.85
2022-08-17T19:36:07.355Z,17.60
2022-08-17T19:38:46.983Z,18.75
2022-08-17T19:41:23.662Z,15.80
2022-08-17T19:44:13.517Z,23.27
2022-08-17T19:46:50.642Z,18.25
2022-08-17T19:49:41.202Z,17.65
2022-08-17T19:52:37.470Z,16.33
2022-08-17T19:55:19.847Z,15.63
2022-08-17T19:58:02.182Z,24.40
2022-08-17T20:00:32.376Z,21.88
2022-08-17T20:03:06.533Z,18.10
2022-08-17T20:05:54.604Z,20.17
2022-08-17T20:08:32.602Z,17.73
2022-08-17T20:11:09.155Z,23.27
2022-08-17T20:13:41.773Z,18.33
2022-08-17T20:16:12.526Z,18.17
2022-08-17T20:18:55.253Z,18.43
2022-08-17T20:21:31.147Z,18.23
2022-08-17T20:24:06.965Z,20.90
2022-08-17T20:26:55.539Z,21.33
2022-08-17T20:29:37.147Z,21.50
2022-08-17T20:32:38.649Z,20.20
2022-08-17T20:35:22.417Z,20.70
2022-08-17T20:37:57.462Z,20.70
2022-08-17T20:40:31.868Z,27.23
2022-08-17T20:43:21.048Z,23.37
2022-08-17T20:46:13.013Z,21.03
2022-08-17T20:48:45.441Z,20.90
2022-08-17T20:51:27.166Z,21.67
2022-08-17T20:54:04.583Z,17.23
2022-08-17T20:56:57.448Z,21.87
2022-08-17T20:59:57.687Z,21.07
2022-08-17T21:02:28.809Z,24.70
2022-08-17T21:05:30.030Z,22.00
2022-08-17T21:08:02.379Z,26.20
2022-08-17T21:10:40.631Z,22.03
2022-08-17T21:13:53.181Z,27.43
2022-08-17T21:16:32.435Z,23.77
2022-08-17T21:19:10.896Z,28.63
2022-08-17T21:21:48.313Z,26.03
2022-08-17T21:24:27.555Z,24.07
2022-08-17T21:27:08.480Z,22.83
2022-08-17T21:29:53.956Z,22.17
2022-08-17T21:32:31.615Z,28.87
2022-08-17T21:35:22.558Z,27.43
2022-08-17T21:37:53.310Z,19.40
2022-08-17T21:40:26.753Z,22.17
2022-08-17T21:42:58.310Z,19.43
2022-08-17T21:45:31.648Z,20.77
2022-08-17T21:48:14.001Z,23.07
2022-08-17T21:50:44.783Z,21.07
2022-08-17T21:53:32.878Z,26.93
2022-08-17T21:56:02.063Z,20.40
2022-08-17T21:58:34.597Z,23.00
2022-08-17T22:01:23.878Z,20.30
2022-08-17T22:04:02.491Z,22.10
2022-08-17T22:06:36.268Z,20.23
2022-08-17T22:09:13.969Z,20.90
2022-08-17T22:12:01.773Z,25.07
2022-08-17T22:14:53.345Z,20.77
2022-08-17T22:17:26.055Z,20.67
2022-08-17T22:19:58.103Z,22.63
2022-08-17T22:22:34.325Z,20.00
2022-08-17T22:25:05.763Z,22.80
2022-08-17T22:27:52.226Z,21.13
2022-08-17T22:30:35.185Z,20.80
2022-08-17T22:33:32.448Z,22.20
2022-08-17T22:36:22.000Z,29.17
2022-08-17T22:38:51.750Z,21.70
2022-08-17T22:41:40.900Z,19.63
2022-08-17T22:44:17.246Z,18.50
2022-08-17T22:46:58.032Z,26.40
2022-08-17T22:49:30.692Z,25.77
2022-08-17T22:52:05.120Z,24.70
2022-08-17T22:54:51.424Z,22.77
2022-08-17T22:57:38.858Z,25.30
2022-08-17T23:00:34.493Z,23.87
2022-08-17T23:03:15.794Z,25.43
2022-08-17T23:05:47.625Z,25.80
2022-08-17T23:08:21.256Z,22.60
2022-08-17T23:10:50.311Z,22.10
2022-08-17T23:13:18.605Z,21.33
2022-08-17T23:15:49.877Z,22.43
2022-08-17T23:18:18.286Z,27.13
2022-08-17T23:20:46.935Z,23.40
2022-08-17T23:23:18.018Z,24.13
2022-08-17T23:25:49.381Z,28.53
2022-08-17T23:28:17.642Z,25.20
2022-08-17T23:30:48.457Z,26.77
2022-08-17T23:33:21.484Z,27.17
2022-08-17T23:35:49.658Z,23.57
2022-08-17T23:38:18.193Z,27.97
2022-08-17T23:40:46.932Z,29.07
2022-08-17T23:43:24.560Z,26.23
2022-08-17T23:45:57.652Z,32.03
2022-08-17T23:48:34.130Z,27.97
2022-08-17T23:51:09.619Z,30.23
2022-08-17T23:53:41.913Z,23.20
2022-08-17T23:56:11.830Z,25.90
2022-08-17T23:58:42.129Z,27.13
